createdAt,value
2023-05-08T00:00:22.919Z,5.22
2023-05-08T00:10:25.189Z,5.05
2023-05-08T00:20:27.094Z,4.03
2023-05-08T00:30:28.979Z,4.43
2023-05-08T00:40:30.743Z,3.28
2023-05-08T00:50:33.148Z,5.75
2023-05-08T01:00:35.101Z,4.20
2023-05-08T01:11:11.041Z,4.40
2023-05-08T01:21:38.952Z,6.35
2023-05-08T01:32:15.783Z,4.18
2023-05-08T01:42:34.466Z,5.68
2023-05-08T01:53:04.614Z,5.80
2023-05-08T02:03:08.385Z,5.30
2023-05-08T02:13:11.921Z,5.95
2023-05-08T02:23:14.796Z,6.03
2023-05-08T02:33:18.017Z,4.05
2023-05-08T02:43:20.245Z,5.85
2023-05-08T02:53:33.069Z,4.22
2023-05-08T03:03:54.341Z,4.40
2023-05-08T03:14:00.549Z,7.25
2023-05-08T03:24:04.299Z,4.03
2023-05-08T03:34:08.462Z,7.50
2023-05-08T03:44:11.710Z,4.25
2023-05-08T03:54:13.711Z,3.42
2023-05-08T04:04:23.392Z,4.78
2023-05-08T04:14:29.887Z,3.17
2023-05-08T04:24:37.327Z,5.60
2023-05-08T04:34:39.299Z,4.50
2023-05-08T04:44:41.321Z,4.60
2023-05-08T04:54:43.420Z,5.00
2023-05-08T05:04:45.854Z,4.10
2023-05-08T05:14:47.730Z,4.15
2023-05-08T05:24:49.694Z,4.15
2023-05-08T05:34:51.917Z,4.25
2023-05-08T05:44:53.985Z,5.15
2023-05-08T05:54:57.220Z,3.50
2023-05-08T06:04:59.762Z,4.05
2023-05-08T06:15:01.741Z,3.33
2023-05-08T06:25:03.883Z,2.95
2023-05-08T06:35:06.327Z,2.75
2023-05-08T06:45:11.596Z,3.35
2023-05-08T06:55:13.941Z,3.22
2023-05-08T07:05:16.451Z,3.33
2023-05-08T07:25:26.612Z,4.30
2023-05-08T07:35:29.017Z,2.85
2023-05-08T07:45:30.968Z,2.33
2023-05-08T07:55:32.928Z,2.28
2023-05-08T08:05:35.053Z,3.65
2023-05-08T08:15:37.210Z,3.25
2023-05-08T08:25:39.330Z,2.80
2023-05-08T08:35:41.671Z,3.67
2023-05-08T08:45:43.934Z,2.22
2023-05-08T08:55:49.442Z,4.70
2023-05-08T09:05:51.579Z,2.08
2023-05-08T09:15:53.483Z,3.15
2023-05-08T09:25:55.619Z,3.83
2023-05-08T09:35:58.206Z,3.63
2023-05-08T09:46:21.130Z,3.08
2023-05-08T09:56:30.073Z,3.22
2023-05-08T10:06:31.962Z,4.00
2023-05-08T10:16:42.100Z,7.10
2023-05-08T10:27:06.293Z,4.50
2023-05-08T10:37:10.382Z,3.92
2023-05-08T10:47:57.005Z,6.43
2023-05-08T10:58:12.586Z,2.30
2023-05-08T11:08:16.186Z,3.13
2023-05-08T11:18:18.062Z,3.05
2023-05-08T11:28:19.976Z,3.55
2023-05-08T11:38:23.707Z,3.95
2023-05-08T11:48:25.634Z,3.25
2023-05-08T11:58:27.676Z,2.90
2023-05-08T12:08:30.081Z,3.20
2023-05-08T12:18:31.978Z,2.75
2023-05-08T12:28:34.122Z,3.70
2023-05-08T12:38:35.977Z,4.07
2023-05-08T12:48:37.851Z,4.25
2023-05-08T12:58:39.835Z,2.35
2023-05-08T13:08:41.885Z,2.33
2023-05-08T13:18:43.897Z,2.85
2023-05-08T13:28:46.954Z,2.88
2023-05-08T13:38:48.986Z,3.08
2023-05-08T13:48:50.913Z,3.03
2023-05-08T13:58:53.096Z,3.78
2023-05-08T14:08:56.881Z,3.10
2023-05-08T14:18:59.252Z,3.60
2023-05-08T14:29:01.150Z,2.65
2023-05-08T14:39:03.407Z,2.50
2023-05-08T14:49:05.974Z,3.38
2023-05-08T14:59:07.946Z,2.63
2023-05-08T15:09:09.971Z,2.72
2023-05-08T15:19:11.885Z,3.25
2023-05-08T15:29:13.767Z,2.90
2023-05-08T15:39:15.691Z,3.25
2023-05-08T15:49:18.094Z,2.50
2023-05-08T15:59:19.897Z,2.60
2023-05-08T16:09:21.925Z,2.72
2023-05-08T16:19:24.039Z,2.33
2023-05-08T16:29:26.065Z,3.33
2023-05-08T16:39:27.917Z,3.08
2023-05-08T16:49:30.024Z,4.53
2023-05-08T16:59:32.156Z,4.90
2023-05-08T17:09:34.908Z,3.78
2023-05-08T17:19:37.072Z,3.08
2023-05-08T17:29:39.002Z,2.50
2023-05-08T17:39:40.774Z,3.47
2023-05-08T17:49:42.671Z,3.58
2023-05-08T17:59:44.542Z,2.55
2023-05-08T18:09:46.426Z,3.22
2023-05-08T18:19:48.782Z,2.92
2023-05-08T18:29:50.651Z,3.58
2023-05-08T18:39:52.665Z,3.92
2023-05-08T18:49:55.128Z,3.72
2023-05-08T18:59:57.026Z,6.25
2023-05-08T19:09:59.222Z,8.45
2023-05-08T19:20:01.365Z,4.30
2023-05-08T19:30:03.397Z,6.60
2023-05-08T19:40:06.935Z,4.63
2023-05-08T19:50:09.115Z,6.45
2023-05-08T20:00:11.811Z,8.18
2023-05-08T20:10:14.157Z,8.52
2023-05-08T20:20:16.262Z,9.93
2023-05-08T20:30:18.316Z,13.57
2023-05-08T20:40:20.345Z,14.38
2023-05-08T20:50:22.313Z,12.65
2023-05-08T21:00:24.137Z,14.00
2023-05-08T21:10:26.772Z,11.43
2023-05-08T21:20:28.575Z,10.10
2023-05-08T21:30:30.502Z,11.68
2023-05-08T21:40:32.360Z,10.88
2023-05-08T21:50:34.323Z,9.32
2023-05-08T22:00:36.176Z,7.15
2023-05-08T22:10:38.250Z,10.48
2023-05-08T22:20:40.477Z,7.55
2023-05-08T22:30:42.319Z,6.82
2023-05-08T22:40:44.224Z,10.65
2023-05-08T22:50:46.319Z,5.75
2023-05-08T23:00:48.337Z,7.10
2023-05-08T23:10:50.369Z,7.07
2023-05-08T23:20:52.647Z,8.23
2023-05-08T23:30:54.615Z,8.75
2023-05-08T23:40:56.491Z,8.77
2023-05-08T23:50:58.509Z,7.05
